sensor_id;sensor_type;location;lat;lon;timestamp;P1;durP1;ratioP1;P2;durP2;ratioP2
51515;SDS011;37603;55.614;37.326;2023-06-22T00:04:53;15.8;;;8.6;;
51515;SDS011;37603;55.614;37.326;2023-06-22T00:10:52;14.4;;;8.6;;
51515;SDS011;37603;55.614;37.326;2023-06-22T00:16:52;16.2;;;9.2;;
51515;SDS011;37603;55.614;37.326;2023-06-22T00:22:51;14.2;;;9.8;;
51515;SDS011;37603;55.614;37.326;2023-06-22T00:28:50;14.7;;;9.2;;
51515;SDS011;37603;55.614;37.326;2023-06-22T00:34:49;13.7;;;8.7;;
51515;SDS011;37603;55.614;37.326;2023-06-22T00:40:49;15.8;;;9.0;;
51515;SDS011;37603;55.614;37.326;2023-06-22T00:46:48;13.4;;;9.3;;
51515;SDS011;37603;55.614;37.326;2023-06-22T00:52:48;14.5;;;10.3;;
51515;SDS011;37603;55.614;37.326;2023-06-22T00:58:46;13.2;;;9.7;;
51515;SDS011;37603;55.614;37.326;2023-06-22T01:04:46;16.0;;;10.1;;
51515;SDS011;37603;55.614;37.326;2023-06-22T01:10:48;16.1;;;10.7;;
51515;SDS011;37603;55.614;37.326;2023-06-22T01:16:44;14.2;;;11.0;;
51515;SDS011;37603;55.614;37.326;2023-06-22T01:22:46;16.5;;;10.8;;
51515;SDS011;37603;55.614;37.326;2023-06-22T01:28:43;17.7;;;10.8;;
51515;SDS011;37603;55.614;37.326;2023-06-22T01:40:41;18.0;;;12.1;;
51515;SDS011;37603;55.614;37.326;2023-06-22T01:46:40;18.8;;;12.9;;
51515;SDS011;37603;55.614;37.326;2023-06-22T01:52:39;17.4;;;11.5;;
51515;SDS011;37603;55.614;37.326;2023-06-22T01:58:40;17.6;;;11.4;;
51515;SDS011;37603;55.614;37.326;2023-06-22T02:04:40;16.6;;;11.2;;
51515;SDS011;37603;55.614;37.326;2023-06-22T02:10:38;16.4;;;10.3;;
51515;SDS011;37603;55.614;37.326;2023-06-22T02:16:36;14.5;;;10.1;;
51515;SDS011;37603;55.614;37.326;2023-06-22T02:22:35;17.8;;;10.3;;
51515;SDS011;37603;55.614;37.326;2023-06-22T02:28:35;15.5;;;10.6;;
51515;SDS011;37603;55.614;37.326;2023-06-22T02:34:34;16.8;;;11.1;;
51515;SDS011;37603;55.614;37.326;2023-06-22T02:40:33;15.5;;;10.6;;
51515;SDS011;37603;55.614;37.326;2023-06-22T02:46:32;11.5;;;9.2;;
51515;SDS011;37603;55.614;37.326;2023-06-22T02:52:32;14.1;;;8.9;;
51515;SDS011;37603;55.614;37.326;2023-06-22T02:58:31;13.5;;;8.6;;
51515;SDS011;37603;55.614;37.326;2023-06-22T03:04:30;12.9;;;7.7;;
51515;SDS011;37603;55.614;37.326;2023-06-22T03:10:29;11.2;;;8.4;;
51515;SDS011;37603;55.614;37.326;2023-06-22T03:16:29;14.8;;;7.8;;
51515;SDS011;37603;55.614;37.326;2023-06-22T03:22:28;10.0;;;7.1;;
51515;SDS011;37603;55.614;37.326;2023-06-22T03:28:27;12.1;;;6.9;;
51515;SDS011;37603;55.614;37.326;2023-06-22T03:34:27;12.3;;;6.7;;
51515;SDS011;37603;55.614;37.326;2023-06-22T03:40:26;11.9;;;6.9;;
51515;SDS011;37603;55.614;37.326;2023-06-22T03:46:25;12.0;;;6.6;;
51515;SDS011;37603;55.614;37.326;2023-06-22T03:52:25;8.8;;;6.2;;
51515;SDS011;37603;55.614;37.326;2023-06-22T03:58:24;7.6;;;5.5;;
51515;SDS011;37603;55.614;37.326;2023-06-22T04:04:23;8.2;;;5.5;;
51515;SDS011;37603;55.614;37.326;2023-06-22T04:10:23;7.8;;;5.0;;
51515;SDS011;37603;55.614;37.326;2023-06-22T04:16:22;9.3;;;4.8;;
51515;SDS011;37603;55.614;37.326;2023-06-22T04:22:21;8.0;;;4.7;;
51515;SDS011;37603;55.614;37.326;2023-06-22T04:28:22;6.3;;;4.6;;
51515;SDS011;37603;55.614;37.326;2023-06-22T04:34:20;8.7;;;4.4;;
51515;SDS011;37603;55.614;37.326;2023-06-22T04:40:21;8.3;;;4.9;;
51515;SDS011;37603;55.614;37.326;2023-06-22T04:46:19;6.4;;;4.6;;
51515;SDS011;37603;55.614;37.326;2023-06-22T04:52:19;7.3;;;4.6;;
51515;SDS011;37603;55.614;37.326;2023-06-22T04:58:19;12.6;;;4.5;;
51515;SDS011;37603;55.614;37.326;2023-06-22T05:04:18;9.4;;;4.3;;
51515;SDS011;37603;55.614;37.326;2023-06-22T05:10:18;6.7;;;4.1;;
51515;SDS011;37603;55.614;37.326;2023-06-22T05:16:18;4.9;;;4.0;;
51515;SDS011;37603;55.614;37.326;2023-06-22T05:22:17;6.9;;;4.3;;
51515;SDS011;37603;55.614;37.326;2023-06-22T05:28:17;8.4;;;4.1;;
51515;SDS011;37603;55.614;37.326;2023-06-22T05:34:17;8.7;;;3.9;;
51515;SDS011;37603;55.614;37.326;2023-06-22T05:40:17;5.6;;;3.6;;
51515;SDS011;37603;55.614;37.326;2023-06-22T05:46:16;5.5;;;3.5;;
51515;SDS011;37603;55.614;37.326;2023-06-22T05:52:16;5.1;;;3.2;;
51515;SDS011;37603;55.614;37.326;2023-06-22T06:04:16;4.3;;;3.3;;
51515;SDS011;37603;55.614;37.326;2023-06-22T06:10:16;4.9;;;3.6;;
51515;SDS011;37603;55.614;37.326;2023-06-22T06:16:16;6.5;;;3.6;;
51515;SDS011;37603;55.614;37.326;2023-06-22T06:22:16;5.4;;;3.1;;
51515;SDS011;37603;55.614;37.326;2023-06-22T06:34:16;5.0;;;3.4;;
51515;SDS011;37603;55.614;37.326;2023-06-22T06:40:16;5.3;;;3.3;;
51515;SDS011;37603;55.614;37.326;2023-06-22T06:46:16;5.0;;;3.5;;
51515;SDS011;37603;55.614;37.326;2023-06-22T06:52:16;4.1;;;3.0;;
51515;SDS011;37603;55.614;37.326;2023-06-22T06:58:16;4.6;;;3.1;;
51515;SDS011;37603;55.614;37.326;2023-06-22T07:04:15;4.3;;;2.9;;
51515;SDS011;37603;55.614;37.326;2023-06-22T07:10:16;4.8;;;3.1;;
51515;SDS011;37603;55.614;37.326;2023-06-22T07:16:15;6.5;;;3.3;;
51515;SDS011;37603;55.614;37.326;2023-06-22T07:22:15;5.5;;;3.4;;
51515;SDS011;37603;55.614;37.326;2023-06-22T07:28:15;4.5;;;3.3;;
51515;SDS011;37603;55.614;37.326;2023-06-22T07:34:15;4.0;;;3.1;;
51515;SDS011;37603;55.614;37.326;2023-06-22T07:40:15;6.3;;;3.4;;
51515;SDS011;37603;55.614;37.326;2023-06-22T07:46:15;4.6;;;3.5;;
51515;SDS011;37603;55.614;37.326;2023-06-22T07:52:15;6.4;;;3.3;;
51515;SDS011;37603;55.614;37.326;2023-06-22T07:58:16;3.6;;;3.2;;
51515;SDS011;37603;55.614;37.326;2023-06-22T08:04:15;3.8;;;3.0;;
51515;SDS011;37603;55.614;37.326;2023-06-22T08:16:15;6.6;;;3.9;;
51515;SDS011;37603;55.614;37.326;2023-06-22T08:28:15;4.9;;;3.4;;
51515;SDS011;37603;55.614;37.326;2023-06-22T08:34:15;6.9;;;3.4;;
51515;SDS011;37603;55.614;37.326;2023-06-22T08:40:15;4.6;;;3.3;;
51515;SDS011;37603;55.614;37.326;2023-06-22T08:46:15;7.6;;;3.4;;
51515;SDS011;37603;55.614;37.326;2023-06-22T08:52:15;3.8;;;3.4;;
51515;SDS011;37603;55.614;37.326;2023-06-22T08:58:15;4.7;;;3.5;;
51515;SDS011;37603;55.614;37.326;2023-06-22T09:10:15;4.7;;;3.7;;
51515;SDS011;37603;55.614;37.326;2023-06-22T09:16:15;5.6;;;3.6;;
51515;SDS011;37603;55.614;37.326;2023-06-22T09:22:15;5.3;;;3.7;;
51515;SDS011;37603;55.614;37.326;2023-06-22T09:28:15;4.8;;;4.3;;
51515;SDS011;37603;55.614;37.326;2023-06-22T09:34:15;5.8;;;4.0;;
51515;SDS011;37603;55.614;37.326;2023-06-22T09:46:15;5.1;;;3.7;;
51515;SDS011;37603;55.614;37.326;2023-06-22T09:58:15;6.6;;;4.2;;
51515;SDS011;37603;55.614;37.326;2023-06-22T10:04:15;5.9;;;3.8;;
51515;SDS011;37603;55.614;37.326;2023-06-22T10:10:15;4.8;;;3.8;;
51515;SDS011;37603;55.614;37.326;2023-06-22T10:16:15;5.6;;;4.2;;
51515;SDS011;37603;55.614;37.326;2023-06-22T10:22:15;4.7;;;4.0;;
51515;SDS011;37603;55.614;37.326;2023-06-22T10:28:15;4.6;;;4.1;;
51515;SDS011;37603;55.614;37.326;2023-06-22T10:34:15;4.3;;;3.8;;
51515;SDS011;37603;55.614;37.326;2023-06-22T10:40:16;7.0;;;4.1;;
51515;SDS011;37603;55.614;37.326;2023-06-22T10:46:16;5.0;;;3.7;;
51515;SDS011;37603;55.614;37.326;2023-06-22T10:52:16;6.4;;;3.9;;
51515;SDS011;37603;55.614;37.326;2023-06-22T10:58:17;5.7;;;3.9;;
51515;SDS011;37603;55.614;37.326;2023-06-22T11:04:16;6.9;;;4.2;;
51515;SDS011;37603;55.614;37.326;2023-06-22T11:10:16;4.7;;;4.1;;
51515;SDS011;37603;55.614;37.326;2023-06-22T11:16:16;5.6;;;4.2;;
51515;SDS011;37603;55.614;37.326;2023-06-22T11:28:16;5.3;;;4.4;;
51515;SDS011;37603;55.614;37.326;2023-06-22T11:34:16;4.9;;;3.8;;
51515;SDS011;37603;55.614;37.326;2023-06-22T11:40:16;6.3;;;4.3;;
51515;SDS011;37603;55.614;37.326;2023-06-22T11:46:16;7.3;;;4.7;;
51515;SDS011;37603;55.614;37.326;2023-06-22T11:52:16;4.6;;;3.9;;
51515;SDS011;37603;55.614;37.326;2023-06-22T11:58:17;5.6;;;4.0;;
51515;SDS011;37603;55.614;37.326;2023-06-22T12:04:17;5.2;;;3.7;;
51515;SDS011;37603;55.614;37.326;2023-06-22T12:10:17;4.6;;;4.1;;
51515;SDS011;37603;55.614;37.326;2023-06-22T12:16:17;7.4;;;4.5;;
51515;SDS011;37603;55.614;37.326;2023-06-22T12:22:17;4.7;;;4.2;;
51515;SDS011;37603;55.614;37.326;2023-06-22T12:28:17;5.9;;;4.2;;
51515;SDS011;37603;55.614;37.326;2023-06-22T12:40:17;5.3;;;4.3;;
51515;SDS011;37603;55.614;37.326;2023-06-22T12:46:18;5.1;;;4.0;;
51515;SDS011;37603;55.614;37.326;2023-06-22T12:52:18;6.3;;;4.4;;
51515;SDS011;37603;55.614;37.326;2023-06-22T12:58:18;5.9;;;5.0;;
51515;SDS011;37603;55.614;37.326;2023-06-22T13:04:18;6.9;;;4.3;;
51515;SDS011;37603;55.614;37.326;2023-06-22T13:10:18;4.7;;;4.1;;
51515;SDS011;37603;55.614;37.326;2023-06-22T13:16:18;5.9;;;4.7;;
51515;SDS011;37603;55.614;37.326;2023-06-22T13:22:26;5.6;;;4.6;;
51515;SDS011;37603;55.614;37.326;2023-06-22T13:28:18;5.4;;;4.4;;
51515;SDS011;37603;55.614;37.326;2023-06-22T13:34:19;6.2;;;4.5;;
51515;SDS011;37603;55.614;37.326;2023-06-22T13:40:19;5.0;;;4.3;;
51515;SDS011;37603;55.614;37.326;2023-06-22T13:46:19;6.0;;;4.5;;
51515;SDS011;37603;55.614;37.326;2023-06-22T13:52:19;5.2;;;4.7;;
51515;SDS011;37603;55.614;37.326;2023-06-22T14:04:19;5.6;;;4.3;;
51515;SDS011;37603;55.614;37.326;2023-06-22T14:16:20;6.1;;;4.7;;
51515;SDS011;37603;55.614;37.326;2023-06-22T14:22:20;6.0;;;4.3;;
51515;SDS011;37603;55.614;37.326;2023-06-22T14:28:20;5.7;;;4.5;;
51515;SDS011;37603;55.614;37.326;2023-06-22T14:34:20;6.8;;;4.6;;
51515;SDS011;37603;55.614;37.326;2023-06-22T14:40:20;5.6;;;4.7;;
51515;SDS011;37603;55.614;37.326;2023-06-22T14:46:20;5.9;;;4.7;;
51515;SDS011;37603;55.614;37.326;2023-06-22T14:52:21;5.2;;;4.7;;
51515;SDS011;37603;55.614;37.326;2023-06-22T14:58:21;4.6;;;4.2;;
51515;SDS011;37603;55.614;37.326;2023-06-22T15:04:21;6.5;;;4.7;;
51515;SDS011;37603;55.614;37.326;2023-06-22T15:10:21;5.2;;;4.7;;
51515;SDS011;37603;55.614;37.326;2023-06-22T15:16:21;5.0;;;4.5;;
51515;SDS011;37603;55.614;37.326;2023-06-22T15:22:21;9.2;;;5.1;;
51515;SDS011;37603;55.614;37.326;2023-06-22T15:28:22;6.2;;;5.2;;
51515;SDS011;37603;55.614;37.326;2023-06-22T15:34:22;5.6;;;5.1;;
51515;SDS011;37603;55.614;37.326;2023-06-22T15:40:22;7.8;;;4.8;;
51515;SDS011;37603;55.614;37.326;2023-06-22T15:46:22;6.1;;;5.0;;
51515;SDS011;37603;55.614;37.326;2023-06-22T15:52:22;7.1;;;5.4;;
51515;SDS011;37603;55.614;37.326;2023-06-22T15:58:22;5.4;;;4.9;;
51515;SDS011;37603;55.614;37.326;2023-06-22T16:04:22;6.9;;;5.0;;
51515;SDS011;37603;55.614;37.326;2023-06-22T16:10:23;6.0;;;4.7;;
51515;SDS011;37603;55.614;37.326;2023-06-22T16:16:23;8.5;;;4.7;;
51515;SDS011;37603;55.614;37.326;2023-06-22T16:22:23;7.8;;;5.2;;
51515;SDS011;37603;55.614;37.326;2023-06-22T16:28:23;10.0;;;5.6;;
51515;SDS011;37603;55.614;37.326;2023-06-22T16:34:23;6.2;;;5.5;;
51515;SDS011;37603;55.614;37.326;2023-06-22T16:40:24;8.3;;;5.0;;
51515;SDS011;37603;55.614;37.326;2023-06-22T16:46:24;7.7;;;5.1;;
51515;SDS011;37603;55.614;37.326;2023-06-22T16:52:24;8.6;;;5.4;;
51515;SDS011;37603;55.614;37.326;2023-06-22T16:58:24;7.3;;;5.2;;
51515;SDS011;37603;55.614;37.326;2023-06-22T17:04:25;6.4;;;5.1;;
51515;SDS011;37603;55.614;37.326;2023-06-22T17:10:24;6.8;;;5.6;;
51515;SDS011;37603;55.614;37.326;2023-06-22T17:16:24;7.0;;;5.6;;
51515;SDS011;37603;55.614;37.326;2023-06-22T17:22:24;6.9;;;5.5;;
51515;SDS011;37603;55.614;37.326;2023-06-22T17:28:24;7.8;;;5.7;;
51515;SDS011;37603;55.614;37.326;2023-06-22T17:34:26;10.8;;;5.6;;
51515;SDS011;37603;55.614;37.326;2023-06-22T17:40:25;15.4;;;6.2;;
51515;SDS011;37603;55.614;37.326;2023-06-22T17:46:24;13.6;;;5.8;;
51515;SDS011;37603;55.614;37.326;2023-06-22T17:52:26;30.0;;;12.6;;
51515;SDS011;37603;55.614;37.326;2023-06-22T17:58:24;33.6;;;15.6;;
51515;SDS011;37603;55.614;37.326;2023-06-22T18:04:24;35.7;;;17.6;;
51515;SDS011;37603;55.614;37.326;2023-06-22T18:10:24;39.7;;;18.8;;
51515;SDS011;37603;55.614;37.326;2023-06-22T18:22:23;42.3;;;19.9;;
51515;SDS011;37603;55.614;37.326;2023-06-22T18:28:23;41.0;;;18.8;;
51515;SDS011;37603;55.614;37.326;2023-06-22T18:34:23;27.4;;;14.4;;
51515;SDS011;37603;55.614;37.326;2023-06-22T18:40:23;23.3;;;12.5;;
51515;SDS011;37603;55.614;37.326;2023-06-22T18:46:31;15.3;;;7.0;;
51515;SDS011;37603;55.614;37.326;2023-06-22T18:52:23;11.2;;;6.2;;
51515;SDS011;37603;55.614;37.326;2023-06-22T18:58:23;11.0;;;5.3;;
51515;SDS011;37603;55.614;37.326;2023-06-22T19:10:22;12.5;;;6.8;;
51515;SDS011;37603;55.614;37.326;2023-06-22T19:16:23;8.7;;;4.8;;
51515;SDS011;37603;55.614;37.326;2023-06-22T19:22:23;8.6;;;4.7;;
51515;SDS011;37603;55.614;37.326;2023-06-22T19:28:21;9.0;;;4.5;;
51515;SDS011;37603;55.614;37.326;2023-06-22T19:34:20;7.4;;;4.6;;
51515;SDS011;37603;55.614;37.326;2023-06-22T19:40:20;11.0;;;4.7;;
51515;SDS011;37603;55.614;37.326;2023-06-22T19:46:25;7.6;;;4.3;;
51515;SDS011;37603;55.614;37.326;2023-06-22T19:52:19;11.3;;;4.8;;
51515;SDS011;37603;55.614;37.326;2023-06-22T19:58:20;9.7;;;4.6;;
51515;SDS011;37603;55.614;37.326;2023-06-22T20:04:19;8.4;;;4.6;;
51515;SDS011;37603;55.614;37.326;2023-06-22T20:10:19;9.4;;;4.8;;
51515;SDS011;37603;55.614;37.326;2023-06-22T20:16:18;9.3;;;4.5;;
51515;SDS011;37603;55.614;37.326;2023-06-22T20:22:17;7.6;;;4.5;;
51515;SDS011;37603;55.614;37.326;2023-06-22T20:28:17;8.9;;;4.1;;
51515;SDS011;37603;55.614;37.326;2023-06-22T20:34:19;7.3;;;4.4;;
51515;SDS011;37603;55.614;37.326;2023-06-22T20:40:16;7.4;;;4.3;;
51515;SDS011;37603;55.614;37.326;2023-06-22T20:52:15;6.1;;;4.3;;
51515;SDS011;37603;55.614;37.326;2023-06-22T20:58:15;9.4;;;4.5;;
51515;SDS011;37603;55.614;37.326;2023-06-22T21:04:14;12.7;;;4.3;;
51515;SDS011;37603;55.614;37.326;2023-06-22T21:10:14;7.9;;;4.2;;
51515;SDS011;37603;55.614;37.326;2023-06-22T21:22:13;11.2;;;4.3;;
51515;SDS011;37603;55.614;37.326;2023-06-22T21:28:13;8.3;;;4.3;;
51515;SDS011;37603;55.614;37.326;2023-06-22T21:34:12;8.1;;;4.0;;
51515;SDS011;37603;55.614;37.326;2023-06-22T21:40:12;7.2;;;3.6;;
51515;SDS011;37603;55.614;37.326;2023-06-22T21:46:12;8.8;;;3.9;;
51515;SDS011;37603;55.614;37.326;2023-06-22T21:52:11;7.6;;;3.9;;
51515;SDS011;37603;55.614;37.326;2023-06-22T21:58:11;7.3;;;3.2;;
51515;SDS011;37603;55.614;37.326;2023-06-22T22:04:10;7.5;;;3.9;;
51515;SDS011;37603;55.614;37.326;2023-06-22T22:10:10;6.1;;;3.7;;
51515;SDS011;37603;55.614;37.326;2023-06-22T22:16:09;9.2;;;3.4;;
51515;SDS011;37603;55.614;37.326;2023-06-22T22:22:09;8.9;;;3.5;;
51515;SDS011;37603;55.614;37.326;2023-06-22T22:28:08;7.4;;;3.1;;
51515;SDS011;37603;55.614;37.326;2023-06-22T22:34:08;6.4;;;3.4;;
51515;SDS011;37603;55.614;37.326;2023-06-22T22:40:08;8.1;;;3.3;;
51515;SDS011;37603;55.614;37.326;2023-06-22T22:46:07;7.4;;;3.1;;
51515;SDS011;37603;55.614;37.326;2023-06-22T22:52:07;6.6;;;3.1;;
51515;SDS011;37603;55.614;37.326;2023-06-22T22:58:06;8.7;;;3.2;;
51515;SDS011;37603;55.614;37.326;2023-06-22T23:04:06;4.9;;;3.1;;
51515;SDS011;37603;55.614;37.326;2023-06-22T23:10:06;7.4;;;3.0;;
51515;SDS011;37603;55.614;37.326;2023-06-22T23:16:05;6.7;;;3.2;;
51515;SDS011;37603;55.614;37.326;2023-06-22T23:22:04;5.4;;;3.5;;
51515;SDS011;37603;55.614;37.326;2023-06-22T23:28:04;7.3;;;3.5;;
51515;SDS011;37603;55.614;37.326;2023-06-22T23:40:03;8.2;;;3.8;;
51515;SDS011;37603;55.614;37.326;2023-06-22T23:46:02;5.6;;;3.7;;
51515;SDS011;37603;55.614;37.326;2023-06-22T23:52:02;5.0;;;3.5;;
51515;SDS011;37603;55.614;37.326;2023-06-22T23:58:01;6.2;;;3.1;;
